createdAt,value
2017-02-01T00:00:33.511Z,0
2017-02-01T00:01:38.682Z,0
2017-02-01T00:02:44.849Z,0
2017-02-01T00:03:50.088Z,0
2017-02-01T00:04:55.258Z,0
2017-02-01T00:06:01.467Z,0
2017-02-01T00:07:06.703Z,0
2017-02-01T00:08:12.861Z,0
2017-02-01T00:09:18.069Z,0
2017-02-01T00:10:23.268Z,0
2017-02-01T00:11:29.528Z,0
2017-02-01T00:12:35.690Z,0
2017-02-01T00:13:41.939Z,0
2017-02-01T00:14:46.111Z,0
2017-02-01T00:15:52.274Z,0
2017-02-01T00:16:58.453Z,0
2017-02-01T00:18:04.615Z,0
2017-02-01T00:19:08.841Z,0
2017-02-01T00:20:14.121Z,0
2017-02-01T00:21:19.258Z,0
2017-02-01T00:22:24.497Z,0
2017-02-01T00:23:29.675Z,0
2017-02-01T00:24:34.876Z,0
2017-02-01T00:25:40.075Z,0
2017-02-01T00:26:45.270Z,0
2017-02-01T00:27:49.461Z,0
2017-02-01T00:28:55.641Z,0
2017-02-01T00:30:00.849Z,0
2017-02-01T00:31:07.005Z,0
2017-02-01T00:32:10.243Z,0
2017-02-01T00:33:15.434Z,0
2017-02-01T00:34:21.606Z,0
2017-02-01T00:35:26.808Z,0
2017-02-01T00:36:32.047Z,0
2017-02-01T00:37:37.182Z,0
2017-02-01T00:38:42.390Z,0
2017-02-01T00:39:47.551Z,0
2017-02-01T00:40:52.780Z,0
2017-02-01T00:41:57.954Z,0
2017-02-01T00:43:03.152Z,0
2017-02-01T00:44:09.316Z,0
2017-02-01T00:45:15.546Z,0
2017-02-01T00:46:21.706Z,0
2017-02-01T00:47:27.878Z,0
2017-02-01T00:48:34.045Z,0
2017-02-01T00:49:40.209Z,0
2017-02-01T00:50:46.372Z,0
2017-02-01T00:51:50.604Z,0
2017-02-01T00:52:56.759Z,0
2017-02-01T00:54:00.973Z,0
2017-02-01T00:55:06.279Z,0
2017-02-01T00:56:11.479Z,0
2017-02-01T00:57:16.644Z,0
2017-02-01T00:58:21.849Z,0
2017-02-01T00:59:26.046Z,0
2017-02-01T01:00:30.270Z,0
2017-02-01T01:01:34.499Z,0
2017-02-01T01:02:39.681Z,0
2017-02-01T01:03:45.868Z,0
2017-02-01T01:04:52.023Z,0
2017-02-01T01:05:58.192Z,0
2017-02-01T01:07:02.426Z,0
2017-02-01T01:08:07.614Z,0
2017-02-01T01:09:12.818Z,0
2017-02-01T01:10:18.983Z,0
2017-02-01T01:11:24.227Z,0
2017-02-01T01:12:29.435Z,0
2017-02-01T01:13:34.631Z,0
2017-02-01T01:14:38.869Z,0
2017-02-01T01:15:45.026Z,0
2017-02-01T01:16:49.231Z,0
2017-02-01T01:17:55.457Z,0
2017-02-01T01:19:01.627Z,0
2017-02-01T01:20:03.939Z,0
2017-02-01T01:21:10.097Z,0
2017-02-01T01:22:16.261Z,0
2017-02-01T01:23:22.421Z,0
2017-02-01T01:24:28.584Z,0
2017-02-01T01:25:34.758Z,0
2017-02-01T01:26:39.960Z,0
2017-02-01T01:27:45.166Z,0
2017-02-01T01:28:51.340Z,0
2017-02-01T01:29:57.657Z,0
2017-02-01T01:31:02.827Z,0
2017-02-01T01:32:08.040Z,0
2017-02-01T01:33:14.175Z,0
2017-02-01T01:34:20.340Z,0
2017-02-01T01:35:26.504Z,0
2017-02-01T01:36:30.738Z,0
2017-02-01T01:37:34.951Z,0
2017-02-01T01:38:41.116Z,0
2017-02-01T01:39:47.299Z,0
2017-02-01T01:40:52.476Z,0
2017-02-01T01:41:58.640Z,0
2017-02-01T01:43:02.868Z,0
2017-02-01T01:44:09.032Z,0
2017-02-01T01:45:13.270Z,0
2017-02-01T01:46:18.434Z,0
2017-02-01T01:47:23.633Z,0
2017-02-01T01:48:29.920Z,0
2017-02-01T01:49:35.017Z,0
2017-02-01T01:50:40.248Z,0
2017-02-01T01:51:46.372Z,0
2017-02-01T01:52:52.557Z,0
2017-02-01T01:53:58.722Z,0
2017-02-01T01:55:04.892Z,0
2017-02-01T01:56:10.113Z,0
2017-02-01T01:57:15.359Z,0
2017-02-01T01:58:19.611Z,0
2017-02-01T01:59:24.863Z,0
2017-02-01T02:00:29.170Z,0
2017-02-01T02:01:34.370Z,0
2017-02-01T02:02:40.535Z,0
2017-02-01T02:03:43.856Z,0
2017-02-01T02:04:50.015Z,0
2017-02-01T02:05:56.225Z,0
2017-02-01T02:07:01.396Z,0
2017-02-01T02:08:05.603Z,0
2017-02-01T02:09:11.789Z,0
2017-02-01T02:10:16.013Z,0
2017-02-01T02:11:21.215Z,0
2017-02-01T02:12:26.412Z,0
2017-02-01T02:13:30.645Z,0
2017-02-01T02:14:35.846Z,0
2017-02-01T02:15:41.026Z,0
2017-02-01T02:16:47.202Z,0
2017-02-01T02:17:52.501Z,0
2017-02-01T02:18:58.674Z,0
2017-02-01T02:20:04.831Z,0
2017-02-01T02:21:07.125Z,0
2017-02-01T02:22:13.289Z,0
2017-02-01T02:23:19.458Z,0
2017-02-01T02:24:25.620Z,0
2017-02-01T02:25:30.799Z,0
2017-02-01T02:26:36.977Z,0
2017-02-01T02:27:43.142Z,0
2017-02-01T02:28:47.337Z,0
2017-02-01T02:29:53.500Z,0
2017-02-01T02:30:56.763Z,0
2017-02-01T02:32:01.964Z,0
2017-02-01T02:33:07.168Z,0
2017-02-01T02:34:11.363Z,0
2017-02-01T02:35:17.530Z,0
2017-02-01T02:36:22.732Z,0
2017-02-01T02:37:27.930Z,0
2017-02-01T02:38:34.093Z,0
2017-02-01T02:39:38.328Z,0
2017-02-01T02:40:43.629Z,0
2017-02-01T02:41:48.730Z,0
2017-02-01T02:42:53.995Z,0
2017-02-01T02:44:00.260Z,0
2017-02-01T02:45:05.501Z,0
2017-02-01T02:46:10.709Z,0
2017-02-01T02:47:14.914Z,0
2017-02-01T02:48:20.269Z,0
2017-02-01T02:49:26.398Z,0
2017-02-01T02:50:32.560Z,0
2017-02-01T02:51:37.781Z,0
2017-02-01T02:52:42.973Z,0
2017-02-01T02:53:49.173Z,0
2017-02-01T02:54:54.332Z,0
2017-02-01T02:55:59.519Z,0
2017-02-01T02:57:04.734Z,0
2017-02-01T02:58:08.974Z,0
2017-02-01T02:59:15.139Z,0
2017-02-01T03:00:20.313Z,0
2017-02-01T03:01:25.565Z,0
2017-02-01T03:02:31.723Z,0
2017-02-01T03:03:36.889Z,0
2017-02-01T03:04:43.058Z,0
2017-02-01T03:05:49.253Z,0
2017-02-01T03:06:54.465Z,0
2017-02-01T03:08:00.627Z,0
2017-02-01T03:09:06.790Z,0
2017-02-01T03:10:12.040Z,0
2017-02-01T03:11:18.214Z,0
2017-02-01T03:12:24.375Z,0
2017-02-01T03:13:28.596Z,0
2017-02-01T03:14:32.859Z,0
2017-02-01T03:15:39.008Z,0
2017-02-01T03:16:44.285Z,0
2017-02-01T03:17:50.463Z,0
2017-02-01T03:18:55.684Z,0
2017-02-01T03:20:00.850Z,0
2017-02-01T03:21:06.111Z,0
2017-02-01T03:22:11.305Z,0
2017-02-01T03:23:17.469Z,0
2017-02-01T03:24:21.733Z,0
2017-02-01T03:25:27.913Z,0
2017-02-01T03:26:33.098Z,0
2017-02-01T03:27:39.296Z,0
2017-02-01T03:28:45.496Z,0
2017-02-01T03:29:51.661Z,0
2017-02-01T03:30:57.847Z,0
2017-02-01T03:32:04.013Z,0
2017-02-01T03:33:08.214Z,0
2017-02-01T03:34:11.521Z,0
2017-02-01T03:35:16.686Z,0
2017-02-01T03:36:22.862Z,0
2017-02-01T03:37:29.018Z,0
2017-02-01T03:38:35.188Z,0
2017-02-01T03:39:39.417Z,0
2017-02-01T03:40:45.709Z,0
2017-02-01T03:41:49.846Z,0
2017-02-01T03:42:56.044Z,0
2017-02-01T03:44:01.203Z,0
2017-02-01T03:45:06.393Z,0
2017-02-01T03:46:12.557Z,0
2017-02-01T03:47:17.764Z,0
2017-02-01T03:48:22.952Z,0
2017-02-01T03:49:29.125Z,0
2017-02-01T03:50:35.336Z,0
2017-02-01T03:51:41.506Z,0
2017-02-01T03:52:46.713Z,0
2017-02-01T03:53:52.869Z,0
2017-02-01T03:54:57.104Z,0
2017-02-01T03:56:00.334Z,0
2017-02-01T03:57:06.491Z,0
2017-02-01T03:58:12.655Z,0
2017-02-01T03:59:18.821Z,0
2017-02-01T04:00:24.980Z,0
2017-02-01T04:01:30.203Z,0
2017-02-01T04:02:36.355Z,0
2017-02-01T04:03:41.556Z,0
2017-02-01T04:04:47.728Z,0
2017-02-01T04:05:53.970Z,0
2017-02-01T04:07:00.113Z,0
2017-02-01T04:08:05.314Z,0
2017-02-01T04:09:11.509Z,0
2017-02-01T04:10:16.709Z,0
2017-02-01T04:11:22.873Z,0
2017-02-01T04:12:29.037Z,0
2017-02-01T04:13:34.356Z,0
2017-02-01T04:14:38.586Z,0
2017-02-01T04:15:44.758Z,0
2017-02-01T04:16:49.988Z,0
2017-02-01T04:17:56.117Z,0
2017-02-01T04:19:02.338Z,0
2017-02-01T04:20:07.489Z,0
2017-02-01T04:21:13.658Z,0
2017-02-01T04:22:18.827Z,0
2017-02-01T04:23:25.015Z,0
2017-02-01T04:24:31.151Z,0
2017-02-01T04:25:37.361Z,0
2017-02-01T04:26:42.566Z,0
2017-02-01T04:27:48.758Z,0
2017-02-01T04:28:53.945Z,0
2017-02-01T04:29:59.223Z,0
2017-02-01T04:31:02.475Z,0
2017-02-01T04:32:08.628Z,0
2017-02-01T04:33:12.828Z,0
2017-02-01T04:34:18.020Z,0
2017-02-01T04:35:24.180Z,0
2017-02-01T04:36:29.517Z,0
2017-02-01T04:37:34.647Z,0
2017-02-01T04:38:40.805Z,0
2017-02-01T04:39:45.091Z,0
2017-02-01T04:40:49.288Z,0
2017-02-01T04:41:53.533Z,0
2017-02-01T04:42:58.709Z,0
2017-02-01T04:44:03.906Z,0
2017-02-01T04:45:10.116Z,0
2017-02-01T04:46:16.231Z,0
2017-02-01T04:47:20.426Z,0
2017-02-01T04:48:25.618Z,0
2017-02-01T04:49:31.788Z,0
2017-02-01T04:50:36.951Z,0
2017-02-01T04:51:42.154Z,0
2017-02-01T04:52:47.345Z,0
2017-02-01T04:53:53.508Z,0
2017-02-01T04:54:58.742Z,0
2017-02-01T04:56:03.935Z,0
2017-02-01T04:57:09.133Z,0
2017-02-01T04:58:14.325Z,0
2017-02-01T04:59:19.524Z,0
2017-02-01T05:00:25.689Z,0
2017-02-01T05:01:31.849Z,0
2017-02-01T05:02:36.087Z,0
2017-02-01T05:03:40.330Z,0
2017-02-01T05:04:46.487Z,0
2017-02-01T05:05:50.778Z,0
2017-02-01T05:06:56.943Z,0
2017-02-01T05:08:01.196Z,0
2017-02-01T05:09:03.471Z,0
2017-02-01T05:10:06.703Z,0
2017-02-01T05:11:12.871Z,0
2017-02-01T05:12:17.104Z,0
2017-02-01T05:13:23.268Z,0
2017-02-01T05:14:29.471Z,0
2017-02-01T05:15:35.630Z,0
2017-02-01T05:16:41.848Z,0
2017-02-01T05:17:46.979Z,0
2017-02-01T05:18:53.159Z,0
2017-02-01T05:19:58.357Z,0
2017-02-01T05:21:04.525Z,0
2017-02-01T05:22:08.735Z,0
2017-02-01T05:23:14.908Z,0
2017-02-01T05:24:20.095Z,0
2017-02-01T05:25:24.389Z,0
2017-02-01T05:26:29.581Z,0
2017-02-01T05:27:34.779Z,0
2017-02-01T05:28:40.944Z,0
2017-02-01T05:29:46.140Z,0
2017-02-01T05:30:52.293Z,0
2017-02-01T05:31:56.548Z,0
2017-02-01T05:33:02.712Z,0
2017-02-01T05:34:08.954Z,0
2017-02-01T05:35:15.115Z,0
2017-02-01T05:36:19.340Z,0
2017-02-01T05:37:23.608Z,0
2017-02-01T05:38:28.717Z,0
2017-02-01T05:39:33.915Z,0
2017-02-01T05:40:39.110Z,0
2017-02-01T05:41:44.350Z,0
2017-02-01T05:42:50.471Z,0
2017-02-01T05:43:56.690Z,0
2017-02-01T05:45:02.860Z,0
2017-02-01T05:46:08.054Z,0
2017-02-01T05:47:14.222Z,0
2017-02-01T05:48:20.434Z,0
2017-02-01T05:49:25.596Z,0
2017-02-01T05:50:31.765Z,0
2017-02-01T05:51:36.980Z,0
2017-02-01T05:52:42.156Z,0
2017-02-01T05:53:48.319Z,0
2017-02-01T05:54:54.476Z,0
2017-02-01T05:56:00.646Z,0
2017-02-01T05:57:05.828Z,0
2017-02-01T05:58:11.030Z,0
2017-02-01T05:59:17.196Z,0
2017-02-01T06:00:23.357Z,0
2017-02-01T06:01:29.547Z,0
2017-02-01T06:02:34.739Z,0
2017-02-01T06:03:38.999Z,0
2017-02-01T06:04:45.154Z,0
2017-02-01T06:05:50.349Z,0
2017-02-01T06:06:54.555Z,0
2017-02-01T06:07:58.763Z,0
2017-02-01T06:09:03.965Z,0
2017-02-01T06:10:09.202Z,0
2017-02-01T06:11:14.406Z,0
2017-02-01T06:12:19.602Z,0
2017-02-01T06:13:25.805Z,0
2017-02-01T06:14:31.961Z,0
2017-02-01T06:15:37.156Z,0
2017-02-01T06:16:42.374Z,0
2017-02-01T06:17:47.569Z,0
2017-02-01T06:18:52.739Z,0
2017-02-01T06:19:57.976Z,0
2017-02-01T06:21:04.170Z,0
2017-02-01T06:22:09.365Z,0
2017-02-01T06:23:15.527Z,0
2017-02-01T06:24:21.747Z,0
2017-02-01T06:25:25.979Z,0
2017-02-01T06:26:32.219Z,0
2017-02-01T06:27:38.326Z,0
2017-02-01T06:28:43.517Z,0
2017-02-01T06:29:48.718Z,0
2017-02-01T06:30:54.907Z,0
2017-02-01T06:32:01.066Z,0
2017-02-01T06:33:07.241Z,0
2017-02-01T06:34:10.500Z,0
2017-02-01T06:35:14.818Z,0
2017-02-01T06:36:20.107Z,0
2017-02-01T06:37:26.416Z,0
2017-02-01T06:38:31.598Z,0
2017-02-01T06:39:35.834Z,4
2017-02-01T06:40:41.039Z,4
2017-02-01T06:41:47.211Z,0
2017-02-01T06:42:52.404Z,4
2017-02-01T06:43:58.578Z,4
2017-02-01T06:45:02.802Z,4
2017-02-01T06:46:08.003Z,4
2017-02-01T06:47:14.186Z,4
2017-02-01T06:48:19.381Z,8
2017-02-01T06:49:24.546Z,8
2017-02-01T06:50:30.779Z,8
2017-02-01T06:51:36.941Z,8
2017-02-01T06:52:42.139Z,12
2017-02-01T06:53:46.443Z,16
2017-02-01T06:54:51.748Z,16
2017-02-01T06:55:56.995Z,20
2017-02-01T06:57:02.196Z,24
2017-02-01T06:58:07.395Z,24
2017-02-01T06:59:12.576Z,28
2017-02-01T07:00:18.736Z,32
2017-02-01T07:01:23.973Z,36
2017-02-01T07:02:30.122Z,44
2017-02-01T07:03:35.313Z,48
2017-02-01T07:04:41.514Z,56
2017-02-01T07:05:46.681Z,64
2017-02-01T07:06:52.837Z,68
2017-02-01T07:07:59.010Z,76
2017-02-01T07:09:05.183Z,88
2017-02-01T07:10:11.344Z,100
2017-02-01T07:11:16.545Z,108
2017-02-01T07:12:22.704Z,116
2017-02-01T07:13:26.937Z,132
2017-02-01T07:14:32.186Z,144
2017-02-01T07:15:38.312Z,148
2017-02-01T07:16:44.474Z,164
2017-02-01T07:17:49.629Z,180
2017-02-01T07:18:55.805Z,192
2017-02-01T07:20:01.996Z,208
2017-02-01T07:21:07.197Z,220
2017-02-01T07:22:12.423Z,244
2017-02-01T07:23:18.622Z,252
2017-02-01T07:24:22.821Z,264
2017-02-01T07:25:29.101Z,288
2017-02-01T07:26:34.275Z,304
2017-02-01T07:27:38.602Z,332
2017-02-01T07:28:44.739Z,356
2017-02-01T07:29:49.938Z,384
2017-02-01T07:30:56.206Z,404
2017-02-01T07:32:01.404Z,420
2017-02-01T07:33:07.581Z,436
2017-02-01T07:34:11.845Z,452
2017-02-01T07:35:16.979Z,500
2017-02-01T07:36:22.182Z,516
2017-02-01T07:37:28.360Z,528
2017-02-01T07:38:33.557Z,560
2017-02-01T07:39:39.726Z,592
2017-02-01T07:40:44.021Z,628
2017-02-01T07:41:49.288Z,668
2017-02-01T07:42:53.520Z,716
2017-02-01T07:43:56.752Z,732
2017-02-01T07:44:59.991Z,764
2017-02-01T07:46:05.186Z,760
2017-02-01T07:47:10.402Z,824
2017-02-01T07:49:21.775Z,864
2017-02-01T07:50:26.971Z,948
2017-02-01T07:51:32.157Z,964
2017-02-01T07:52:37.436Z,1072
2017-02-01T07:53:42.636Z,1132
2017-02-01T07:55:53.039Z,1188
2017-02-01T07:56:58.247Z,1164
2017-02-01T07:58:04.403Z,1212
2017-02-01T07:59:10.569Z,1164
2017-02-01T08:00:16.728Z,1196
2017-02-01T08:01:22.890Z,1288
2017-02-01T08:02:28.097Z,1280
2017-02-01T08:03:34.278Z,1300
2017-02-01T08:04:40.438Z,1272
2017-02-01T08:05:46.603Z,1356
2017-02-01T08:06:52.775Z,1384
2017-02-01T08:07:58.931Z,1476
2017-02-01T08:09:05.156Z,1552
2017-02-01T08:10:09.419Z,1532
2017-02-01T08:11:14.590Z,1396
2017-02-01T08:12:19.788Z,1448
2017-02-01T08:13:26.032Z,1448
2017-02-01T08:14:32.145Z,1424
2017-02-01T08:15:38.325Z,1468
2017-02-01T08:16:42.576Z,1424
2017-02-01T08:17:47.778Z,1488
2017-02-01T08:18:51.993Z,1480
2017-02-01T08:19:57.204Z,1504
2017-02-01T08:21:02.414Z,1704
2017-02-01T08:22:06.610Z,1768
2017-02-01T08:23:12.785Z,1664
2017-02-01T08:24:17.020Z,1716
2017-02-01T08:25:22.210Z,1804
2017-02-01T08:26:27.387Z,1720
2017-02-01T08:27:32.598Z,1668
2017-02-01T08:28:38.779Z,1644
2017-02-01T08:29:44.939Z,1564
2017-02-01T08:30:51.172Z,1608
2017-02-01T08:31:56.368Z,1740
2017-02-01T08:33:02.593Z,1716
2017-02-01T08:34:08.717Z,1804
2017-02-01T08:35:12.972Z,1800
2017-02-01T08:36:19.152Z,1752
2017-02-01T08:37:23.360Z,1712
2017-02-01T08:38:28.571Z,1744
2017-02-01T08:39:33.838Z,1832
2017-02-01T08:40:36.982Z,1984
2017-02-01T08:41:42.189Z,2012
2017-02-01T08:42:47.399Z,1940
2017-02-01T08:43:52.695Z,1972
2017-02-01T08:44:58.918Z,1952
2017-02-01T08:46:05.075Z,1956
2017-02-01T08:47:09.302Z,2048
2017-02-01T08:48:15.469Z,2096
2017-02-01T08:49:20.694Z,1992
2017-02-01T08:50:25.892Z,2060
2017-02-01T08:51:31.090Z,2216
2017-02-01T08:52:34.389Z,2228
2017-02-01T08:53:40.637Z,2244
2017-02-01T08:54:44.769Z,2300
2017-02-01T08:55:48.990Z,2300
2017-02-01T08:56:55.156Z,2360
2017-02-01T08:58:01.329Z,2636
2017-02-01T08:59:07.503Z,2644
2017-02-01T09:00:12.666Z,2804
2017-02-01T09:01:16.863Z,2828
2017-02-01T09:02:22.061Z,2652
2017-02-01T09:03:28.226Z,2720
2017-02-01T09:04:33.427Z,2856
2017-02-01T09:05:39.636Z,2832
2017-02-01T09:06:44.805Z,2996
2017-02-01T09:07:51.002Z,3036
2017-02-01T09:08:55.368Z,3092
2017-02-01T09:10:01.539Z,3140
2017-02-01T09:11:06.738Z,3288
2017-02-01T09:12:11.933Z,3268
2017-02-01T09:13:16.160Z,3340
2017-02-01T09:14:20.383Z,3428
2017-02-01T09:15:26.557Z,3396
2017-02-01T09:16:32.717Z,3420
2017-02-01T09:17:38.964Z,3424
2017-02-01T09:18:45.140Z,3372
2017-02-01T09:19:49.373Z,3540
2017-02-01T09:20:55.556Z,3856
2017-02-01T09:22:00.761Z,3636
2017-02-01T09:23:06.935Z,3952
2017-02-01T09:24:13.099Z,4160
2017-02-01T09:25:19.269Z,3980
2017-02-01T09:26:22.513Z,4180
2017-02-01T09:27:28.708Z,4640
2017-02-01T09:28:34.040Z,5032
2017-02-01T09:29:40.219Z,4580
2017-02-01T09:30:46.427Z,4280
2017-02-01T09:31:52.548Z,4016
2017-02-01T09:32:56.792Z,3848
2017-02-01T09:34:02.957Z,4104
2017-02-01T09:35:06.226Z,4056
2017-02-01T09:36:10.537Z,4112
2017-02-01T09:37:15.705Z,3952
2017-02-01T09:38:21.871Z,3760
2017-02-01T09:39:25.124Z,3820
2017-02-01T09:40:31.279Z,3876
2017-02-01T09:41:37.456Z,4084
2017-02-01T09:42:43.623Z,4196
2017-02-01T09:43:48.817Z,4136
2017-02-01T09:44:54.985Z,3792
2017-02-01T09:46:00.234Z,3676
2017-02-01T09:47:06.366Z,3824
2017-02-01T09:48:11.535Z,4092
2017-02-01T09:49:17.704Z,4888
2017-02-01T09:50:22.906Z,5808
2017-02-01T09:51:28.099Z,5560
2017-02-01T09:52:32.449Z,5300
2017-02-01T09:53:38.617Z,5072
2017-02-01T09:54:44.781Z,5644
2017-02-01T09:55:50.029Z,5708
2017-02-01T09:56:54.263Z,5184
2017-02-01T09:57:59.518Z,5836
2017-02-01T09:59:05.681Z,5584
2017-02-01T10:00:10.875Z,5400
2017-02-01T10:01:16.071Z,4824
2017-02-01T10:02:21.319Z,5008
2017-02-01T10:03:24.630Z,5532
2017-02-01T10:04:29.832Z,5556
2017-02-01T10:05:35.999Z,6068
2017-02-01T10:06:40.221Z,5656
2017-02-01T10:07:45.466Z,5700
2017-02-01T10:08:48.704Z,5772
2017-02-01T10:09:54.928Z,5356
2017-02-01T10:11:00.132Z,5844
2017-02-01T10:12:05.428Z,5872
2017-02-01T10:13:11.594Z,6052
2017-02-01T10:14:16.796Z,6120
2017-02-01T10:15:22.972Z,5880
2017-02-01T10:16:28.183Z,6816
2017-02-01T10:17:33.386Z,7212
2017-02-01T10:18:38.587Z,5968
2017-02-01T10:19:43.786Z,6200
2017-02-01T10:20:50.034Z,6748
2017-02-01T10:21:55.201Z,6344
2017-02-01T10:23:01.384Z,6496
2017-02-01T10:24:06.616Z,6276
2017-02-01T10:25:10.844Z,6752
2017-02-01T10:26:17.014Z,6792
2017-02-01T10:27:23.228Z,6732
2017-02-01T10:28:29.349Z,6712
2017-02-01T10:29:34.550Z,6704
2017-02-01T10:30:40.722Z,6440
2017-02-01T10:31:45.922Z,6144
2017-02-01T10:32:51.116Z,6112
2017-02-01T10:33:56.324Z,5980
2017-02-01T10:35:00.530Z,5984
2017-02-01T10:36:04.748Z,6156
2017-02-01T10:37:10.995Z,6192
2017-02-01T10:38:16.182Z,6184
2017-02-01T10:39:22.348Z,6228
2017-02-01T10:40:26.603Z,6144
2017-02-01T10:41:32.787Z,6844
2017-02-01T10:42:38.940Z,6736
2017-02-01T10:43:44.112Z,6096
2017-02-01T10:44:50.286Z,6644
2017-02-01T10:45:55.480Z,6976
2017-02-01T10:47:00.754Z,7356
2017-02-01T10:48:06.904Z,8692
2017-02-01T10:49:13.068Z,8136
2017-02-01T10:50:19.260Z,8340
2017-02-01T10:51:25.434Z,7704
2017-02-01T10:52:30.637Z,7468
2017-02-01T10:53:34.865Z,7412
2017-02-01T10:54:40.043Z,7052
2017-02-01T10:55:45.317Z,6612
2017-02-01T10:56:50.597Z,6600
2017-02-01T10:57:54.798Z,6132
2017-02-01T10:59:00.963Z,6316
2017-02-01T11:00:07.130Z,6612
2017-02-01T11:01:13.296Z,6360
2017-02-01T11:02:17.546Z,6112
2017-02-01T11:03:22.781Z,6140
2017-02-01T11:04:28.928Z,6804
2017-02-01T11:05:35.176Z,7560
2017-02-01T11:06:41.347Z,8032
2017-02-01T11:07:47.516Z,7064
2017-02-01T11:08:52.706Z,7136
2017-02-01T11:09:58.930Z,7252
2017-02-01T11:11:04.135Z,7412
2017-02-01T11:12:10.311Z,8196
2017-02-01T11:13:15.503Z,7608
2017-02-01T11:14:20.681Z,6948
2017-02-01T11:15:26.844Z,6896
2017-02-01T11:16:33.060Z,7688
2017-02-01T11:17:39.219Z,8052
2017-02-01T11:18:45.389Z,7688
2017-02-01T11:19:51.560Z,8032
2017-02-01T11:20:56.778Z,8608
2017-02-01T11:22:02.945Z,8984
2017-02-01T11:23:07.214Z,9484
2017-02-01T11:24:13.399Z,9176
2017-02-01T11:25:18.562Z,9224
2017-02-01T11:26:23.772Z,8576
2017-02-01T11:27:28.971Z,8536
2017-02-01T11:28:34.152Z,9044
2017-02-01T11:29:40.335Z,8596
2017-02-01T11:30:45.514Z,8060
2017-02-01T11:31:51.691Z,8164
2017-02-01T11:32:57.895Z,8212
2017-02-01T11:34:02.108Z,8336
2017-02-01T11:35:07.375Z,8608
2017-02-01T11:36:12.647Z,8380
2017-02-01T11:37:17.826Z,8076
2017-02-01T11:38:22.024Z,8960
2017-02-01T11:39:27.231Z,8924
2017-02-01T11:40:33.407Z,8920
2017-02-01T11:41:38.614Z,9892
2017-02-01T11:42:42.819Z,10144
2017-02-01T11:43:47.023Z,9936
2017-02-01T11:44:53.199Z,9900
2017-02-01T11:45:57.440Z,9848
2017-02-01T11:47:02.667Z,10240
2017-02-01T11:48:07.849Z,9972
2017-02-01T11:49:13.057Z,9564
2017-02-01T11:50:18.264Z,9984
2017-02-01T11:51:24.435Z,9864
2017-02-01T11:52:29.603Z,9256
2017-02-01T11:53:34.809Z,9160
2017-02-01T11:54:40.980Z,9544
2017-02-01T11:55:46.163Z,9628
2017-02-01T11:56:52.401Z,9324
2017-02-01T11:57:58.498Z,8552
2017-02-01T11:59:02.786Z,6724
2017-02-01T12:00:07.945Z,5840
2017-02-01T12:01:13.117Z,6268
2017-02-01T12:02:19.280Z,6840
2017-02-01T12:03:24.494Z,7736
2017-02-01T12:04:30.660Z,7968
2017-02-01T12:05:35.958Z,7940
2017-02-01T12:06:40.186Z,7928
2017-02-01T12:07:45.389Z,8528
2017-02-01T12:08:50.685Z,8888
2017-02-01T12:09:56.973Z,8548
2017-02-01T12:11:02.160Z,8052
2017-02-01T12:12:07.418Z,7440
2017-02-01T12:13:12.624Z,7240
2017-02-01T12:14:16.828Z,6988
2017-02-01T12:15:22.998Z,7036
2017-02-01T12:16:29.223Z,6528
2017-02-01T12:17:34.516Z,5956
2017-02-01T12:18:40.685Z,5276
2017-02-01T12:19:46.847Z,5020
2017-02-01T12:20:52.093Z,5260
2017-02-01T12:21:55.287Z,5064
2017-02-01T12:23:01.447Z,5204
2017-02-01T12:24:07.634Z,5420
2017-02-01T12:25:12.879Z,6104
2017-02-01T12:26:19.013Z,6568
2017-02-01T12:27:25.193Z,6796
2017-02-01T12:28:30.397Z,6732
2017-02-01T12:29:35.598Z,6424
2017-02-01T12:30:40.800Z,6296
2017-02-01T12:31:46.968Z,6548
2017-02-01T12:32:51.210Z,6040
2017-02-01T12:33:56.431Z,5668
2017-02-01T12:35:01.666Z,5140
2017-02-01T12:36:07.842Z,4500
2017-02-01T12:37:13.072Z,4040
2017-02-01T12:38:18.265Z,4116
2017-02-01T12:39:24.431Z,4164
2017-02-01T12:40:29.666Z,4044
2017-02-01T12:41:34.874Z,3980
2017-02-01T12:42:41.045Z,3848
2017-02-01T12:43:46.305Z,3748
2017-02-01T12:44:52.469Z,3592
2017-02-01T12:45:58.654Z,3548
2017-02-01T12:47:03.855Z,3576
2017-02-01T12:48:09.064Z,3680
2017-02-01T12:49:13.304Z,3780
2017-02-01T12:50:19.548Z,3684
2017-02-01T12:51:23.787Z,3500
2017-02-01T12:52:29.973Z,3380
2017-02-01T12:53:36.148Z,3220
2017-02-01T12:54:42.342Z,3256
2017-02-01T12:55:48.506Z,3332
2017-02-01T12:56:53.704Z,3376
2017-02-01T12:57:59.867Z,3364
2017-02-01T12:59:05.068Z,3364
2017-02-01T13:00:11.243Z,3376
2017-02-01T13:01:17.405Z,3388
2017-02-01T13:02:22.635Z,3344
2017-02-01T13:03:28.806Z,3376
2017-02-01T13:04:34.039Z,3348
2017-02-01T13:05:39.241Z,3248
2017-02-01T13:06:44.448Z,3140
2017-02-01T13:07:48.770Z,3144
2017-02-01T13:08:53.975Z,3176
2017-02-01T13:09:59.163Z,3196
2017-02-01T13:11:04.375Z,3160
2017-02-01T13:12:09.565Z,3124
2017-02-01T13:13:14.771Z,3108
2017-02-01T13:14:20.050Z,3108
2017-02-01T13:15:24.675Z,3112
2017-02-01T13:16:28.839Z,3108
2017-02-01T13:18:38.213Z,3108
2017-02-01T13:19:44.392Z,3092
2017-02-01T13:20:49.795Z,3068
2017-02-01T13:21:55.006Z,3052
2017-02-01T13:23:00.205Z,3044
2017-02-01T13:24:05.402Z,3028
2017-02-01T13:25:11.569Z,3008
2017-02-01T13:26:16.785Z,3000
2017-02-01T13:27:22.064Z,3016
2017-02-01T13:28:28.235Z,3068
2017-02-01T13:29:33.415Z,3056
2017-02-01T13:30:39.581Z,2948
2017-02-01T13:31:44.842Z,2908
2017-02-01T13:32:49.999Z,2900
2017-02-01T13:33:55.201Z,2904
2017-02-01T13:35:00.401Z,2880
2017-02-01T13:36:06.577Z,2876
2017-02-01T13:37:11.804Z,2848
2017-02-01T13:38:16.969Z,2800
2017-02-01T13:39:22.164Z,2756
2017-02-01T13:40:27.348Z,2744
2017-02-01T13:41:33.514Z,2720
2017-02-01T13:42:38.713Z,2676
2017-02-01T13:43:44.883Z,2636
2017-02-01T13:44:48.132Z,2608
2017-02-01T13:45:53.306Z,2596
2017-02-01T13:46:58.590Z,2564
2017-02-01T13:48:04.762Z,2520
2017-02-01T13:49:08.998Z,2484
2017-02-01T13:50:15.166Z,2452
2017-02-01T13:51:18.505Z,2432
2017-02-01T13:52:23.635Z,2404
2017-02-01T13:53:29.802Z,2388
2017-02-01T13:54:34.986Z,2376
2017-02-01T13:55:40.195Z,2344
2017-02-01T13:56:45.402Z,2332
2017-02-01T13:57:50.600Z,2304
2017-02-01T13:58:53.819Z,2280
2017-02-01T13:59:59.990Z,2260
2017-02-01T14:01:05.193Z,2236
2017-02-01T14:02:10.383Z,2228
2017-02-01T14:04:22.729Z,2188
2017-02-01T14:05:28.956Z,2192
2017-02-01T14:06:34.315Z,2204
2017-02-01T14:07:40.498Z,2204
2017-02-01T14:08:45.697Z,2204
2017-02-01T14:09:50.871Z,2200
2017-02-01T14:10:53.146Z,2196
2017-02-01T14:11:58.349Z,2184
2017-02-01T14:13:03.546Z,2164
2017-02-01T14:14:08.741Z,2132
2017-02-01T14:15:13.941Z,2084
2017-02-01T14:16:18.171Z,2052
2017-02-01T14:17:24.352Z,2028
2017-02-01T14:18:29.553Z,2000
2017-02-01T14:19:35.720Z,1980
2017-02-01T14:20:41.878Z,1980
2017-02-01T14:21:47.083Z,1972
2017-02-01T14:22:53.250Z,1948
2017-02-01T14:23:59.415Z,1908
2017-02-01T14:25:03.651Z,1856
2017-02-01T14:26:08.829Z,1820
2017-02-01T14:27:14.032Z,1796
2017-02-01T14:28:20.189Z,1776
2017-02-01T14:29:26.382Z,1764
2017-02-01T14:30:31.542Z,1752
2017-02-01T14:31:36.800Z,1748
2017-02-01T14:32:42.042Z,1748
2017-02-01T14:33:47.243Z,1740
2017-02-01T14:34:52.409Z,1724
2017-02-01T14:35:57.613Z,1708
2017-02-01T14:37:03.783Z,1684
2017-02-01T14:38:08.019Z,1664
2017-02-01T14:39:14.188Z,1652
2017-02-01T14:40:19.383Z,1636
2017-02-01T14:41:22.655Z,1616
2017-02-01T14:42:27.849Z,1600
2017-02-01T14:43:33.993Z,1588
2017-02-01T14:44:40.161Z,1572
2017-02-01T14:45:45.350Z,1564
2017-02-01T14:46:50.583Z,1552
2017-02-01T14:47:55.745Z,1540
2017-02-01T14:48:58.987Z,1528
2017-02-01T14:50:05.187Z,1520
2017-02-01T14:51:10.364Z,1512
2017-02-01T14:52:14.595Z,1512
2017-02-01T14:53:20.767Z,1508
2017-02-01T14:54:25.000Z,1508
2017-02-01T14:55:28.372Z,1504
2017-02-01T14:56:34.500Z,1500
2017-02-01T14:57:39.704Z,1504
2017-02-01T14:58:44.873Z,1508
2017-02-01T14:59:50.067Z,1512
2017-02-01T15:00:56.289Z,1512
2017-02-01T15:02:01.503Z,1516
2017-02-01T15:03:06.706Z,1520
2017-02-01T15:04:12.929Z,1524
2017-02-01T15:05:19.104Z,1532
2017-02-01T15:06:23.313Z,1540
2017-02-01T15:07:28.523Z,1552
2017-02-01T15:09:39.899Z,1564
2017-02-01T15:10:46.076Z,1564
2017-02-01T15:11:51.244Z,1568
2017-02-01T15:12:56.456Z,1568
2017-02-01T15:14:02.622Z,1568
2017-02-01T15:15:07.826Z,1560
2017-02-01T15:16:12.039Z,1560
2017-02-01T15:17:16.266Z,1552
2017-02-01T15:18:22.439Z,1540
2017-02-01T15:19:27.643Z,1524